sensor_id;sensor_type;location;lat;lon;timestamp;P1;durP1;ratioP1;P2;durP2;ratioP2
37284;SDS011;23172;53.550;9.964;2023-06-04T00:03:11;12.38;;;11.63;;
37284;SDS011;23172;53.550;9.964;2023-06-04T00:08:13;22.52;;;20.55;;
37284;SDS011;23172;53.550;9.964;2023-06-04T00:13:15;19.42;;;18.33;;
37284;SDS011;23172;53.550;9.964;2023-06-04T00:18:18;10.95;;;10.25;;
37284;SDS011;23172;53.550;9.964;2023-06-04T00:23:20;7.13;;;6.70;;
37284;SDS011;23172;53.550;9.964;2023-06-04T00:28:22;8.20;;;7.72;;
37284;SDS011;23172;53.550;9.964;2023-06-04T00:33:26;5.95;;;5.40;;
37284;SDS011;23172;53.550;9.964;2023-06-04T00:38:28;7.53;;;6.93;;
37284;SDS011;23172;53.550;9.964;2023-06-04T00:43:29;6.28;;;5.78;;
37284;SDS011;23172;53.550;9.964;2023-06-04T00:48:34;5.90;;;5.40;;
37284;SDS011;23172;53.550;9.964;2023-06-04T00:53:36;7.57;;;6.82;;
37284;SDS011;23172;53.550;9.964;2023-06-04T00:58:39;12.35;;;10.38;;
37284;SDS011;23172;53.550;9.964;2023-06-04T01:03:43;8.15;;;7.30;;
37284;SDS011;23172;53.550;9.964;2023-06-04T01:08:49;5.72;;;5.18;;
37284;SDS011;23172;53.550;9.964;2023-06-04T01:13:54;5.47;;;4.97;;
37284;SDS011;23172;53.550;9.964;2023-06-04T01:18:58;5.53;;;5.13;;
37284;SDS011;23172;53.550;9.964;2023-06-04T01:24:02;5.53;;;4.97;;
37284;SDS011;23172;53.550;9.964;2023-06-04T01:29:07;5.50;;;5.10;;
37284;SDS011;23172;53.550;9.964;2023-06-04T01:34:11;4.13;;;3.83;;
37284;SDS011;23172;53.550;9.964;2023-06-04T01:39:13;5.30;;;4.90;;
37284;SDS011;23172;53.550;9.964;2023-06-04T01:44:14;7.55;;;6.10;;
37284;SDS011;23172;53.550;9.964;2023-06-04T01:49:18;7.63;;;6.90;;
37284;SDS011;23172;53.550;9.964;2023-06-04T01:54:20;7.95;;;6.68;;
37284;SDS011;23172;53.550;9.964;2023-06-04T01:59:22;8.20;;;5.53;;
37284;SDS011;23172;53.550;9.964;2023-06-04T02:04:25;6.03;;;5.53;;
37284;SDS011;23172;53.550;9.964;2023-06-04T02:09:27;7.82;;;6.95;;
37284;SDS011;23172;53.550;9.964;2023-06-04T02:14:29;5.40;;;4.93;;
37284;SDS011;23172;53.550;9.964;2023-06-04T02:19:32;5.43;;;4.93;;
37284;SDS011;23172;53.550;9.964;2023-06-04T02:24:37;6.45;;;5.00;;
37284;SDS011;23172;53.550;9.964;2023-06-04T02:29:42;5.50;;;5.00;;
37284;SDS011;23172;53.550;9.964;2023-06-04T02:34:45;4.93;;;4.53;;
37284;SDS011;23172;53.550;9.964;2023-06-04T02:39:48;5.65;;;4.63;;
37284;SDS011;23172;53.550;9.964;2023-06-04T02:44:50;4.45;;;4.10;;
37284;SDS011;23172;53.550;9.964;2023-06-04T02:49:53;4.68;;;4.28;;
37284;SDS011;23172;53.550;9.964;2023-06-04T02:54:55;4.18;;;3.78;;
37284;SDS011;23172;53.550;9.964;2023-06-04T02:59:57;4.53;;;4.18;;
37284;SDS011;23172;53.550;9.964;2023-06-04T03:05:01;4.25;;;3.92;;
37284;SDS011;23172;53.550;9.964;2023-06-04T03:10:04;3.13;;;2.67;;
37284;SDS011;23172;53.550;9.964;2023-06-04T03:15:07;3.70;;;2.85;;
37284;SDS011;23172;53.550;9.964;2023-06-04T03:20:11;4.00;;;3.70;;
37284;SDS011;23172;53.550;9.964;2023-06-04T03:25:13;4.32;;;4.03;;
37284;SDS011;23172;53.550;9.964;2023-06-04T03:30:15;4.60;;;4.10;;
37284;SDS011;23172;53.550;9.964;2023-06-04T03:35:18;4.05;;;3.75;;
37284;SDS011;23172;53.550;9.964;2023-06-04T03:40:20;7.28;;;3.90;;
37284;SDS011;23172;53.550;9.964;2023-06-04T03:45:22;4.22;;;3.92;;
37284;SDS011;23172;53.550;9.964;2023-06-04T03:50:25;4.35;;;4.05;;
37284;SDS011;23172;53.550;9.964;2023-06-04T03:55:27;3.70;;;3.40;;
37284;SDS011;23172;53.550;9.964;2023-06-04T04:00:32;3.75;;;3.42;;
37284;SDS011;23172;53.550;9.964;2023-06-04T04:05:35;3.60;;;3.30;;
37284;SDS011;23172;53.550;9.964;2023-06-04T04:10:37;4.05;;;3.20;;
37284;SDS011;23172;53.550;9.964;2023-06-04T04:15:38;5.28;;;4.15;;
37284;SDS011;23172;53.550;9.964;2023-06-04T04:20:42;3.60;;;3.30;;
37284;SDS011;23172;53.550;9.964;2023-06-04T04:25:44;4.45;;;4.05;;
37284;SDS011;23172;53.550;9.964;2023-06-04T04:30:46;5.68;;;3.97;;
37284;SDS011;23172;53.550;9.964;2023-06-04T04:35:50;4.30;;;3.97;;
37284;SDS011;23172;53.550;9.964;2023-06-04T04:40:52;4.47;;;4.18;;
37284;SDS011;23172;53.550;9.964;2023-06-04T04:45:54;4.03;;;3.72;;
37284;SDS011;23172;53.550;9.964;2023-06-04T04:50:57;4.63;;;4.32;;
37284;SDS011;23172;53.550;9.964;2023-06-04T04:55:59;5.22;;;4.57;;
37284;SDS011;23172;53.550;9.964;2023-06-04T05:01:01;4.97;;;4.15;;
37284;SDS011;23172;53.550;9.964;2023-06-04T05:06:04;4.95;;;4.55;;
37284;SDS011;23172;53.550;9.964;2023-06-04T05:11:06;4.75;;;4.35;;
37284;SDS011;23172;53.550;9.964;2023-06-04T05:16:08;4.55;;;4.05;;
37284;SDS011;23172;53.550;9.964;2023-06-04T05:21:12;4.18;;;3.78;;
37284;SDS011;23172;53.550;9.964;2023-06-04T05:26:14;6.00;;;4.00;;
37284;SDS011;23172;53.550;9.964;2023-06-04T05:31:16;4.53;;;4.13;;
37284;SDS011;23172;53.550;9.964;2023-06-04T05:36:20;5.05;;;4.53;;
37284;SDS011;23172;53.550;9.964;2023-06-04T05:41:22;4.05;;;3.63;;
37284;SDS011;23172;53.550;9.964;2023-06-04T05:46:26;5.43;;;5.03;;
37284;SDS011;23172;53.550;9.964;2023-06-04T05:51:29;5.15;;;4.05;;
37284;SDS011;23172;53.550;9.964;2023-06-04T05:56:31;4.88;;;4.05;;
37284;SDS011;23172;53.550;9.964;2023-06-04T06:01:33;5.22;;;4.72;;
37284;SDS011;23172;53.550;9.964;2023-06-04T06:06:36;6.10;;;4.78;;
37284;SDS011;23172;53.550;9.964;2023-06-04T06:11:39;5.18;;;4.68;;
37284;SDS011;23172;53.550;9.964;2023-06-04T06:16:41;4.88;;;4.38;;
37284;SDS011;23172;53.550;9.964;2023-06-04T06:21:44;5.32;;;4.50;;
37284;SDS011;23172;53.550;9.964;2023-06-04T06:26:46;5.55;;;5.05;;
37284;SDS011;23172;53.550;9.964;2023-06-04T06:31:47;4.97;;;4.22;;
37284;SDS011;23172;53.550;9.964;2023-06-04T06:36:51;4.75;;;4.18;;
37284;SDS011;23172;53.550;9.964;2023-06-04T06:41:53;6.63;;;5.50;;
37284;SDS011;23172;53.550;9.964;2023-06-04T06:46:54;6.47;;;5.88;;
37284;SDS011;23172;53.550;9.964;2023-06-04T06:51:58;7.35;;;6.63;;
37284;SDS011;23172;53.550;9.964;2023-06-04T06:56:59;7.32;;;6.82;;
37284;SDS011;23172;53.550;9.964;2023-06-04T07:02:03;11.15;;;10.50;;
37284;SDS011;23172;53.550;9.964;2023-06-04T07:07:06;11.52;;;10.82;;
37284;SDS011;23172;53.550;9.964;2023-06-04T07:12:08;12.65;;;11.63;;
37284;SDS011;23172;53.550;9.964;2023-06-04T07:17:10;12.57;;;11.88;;
37284;SDS011;23172;53.550;9.964;2023-06-04T07:22:13;16.73;;;15.77;;
37284;SDS011;23172;53.550;9.964;2023-06-04T07:27:16;12.93;;;12.13;;
37284;SDS011;23172;53.550;9.964;2023-06-04T07:32:18;12.93;;;12.23;;
37284;SDS011;23172;53.550;9.964;2023-06-04T07:37:21;12.90;;;12.10;;
37284;SDS011;23172;53.550;9.964;2023-06-04T07:42:23;12.23;;;11.57;;
37284;SDS011;23172;53.550;9.964;2023-06-04T07:47:25;13.27;;;12.38;;
37284;SDS011;23172;53.550;9.964;2023-06-04T07:52:29;12.15;;;11.55;;
37284;SDS011;23172;53.550;9.964;2023-06-04T07:57:31;8.23;;;7.63;;
37284;SDS011;23172;53.550;9.964;2023-06-04T08:02:33;10.10;;;9.52;;
37284;SDS011;23172;53.550;9.964;2023-06-04T08:07:36;887.63;;;802.72;;
37284;SDS011;23172;53.550;9.964;2023-06-04T08:12:38;1999.90;;;999.90;;
37284;SDS011;23172;53.550;9.964;2023-06-04T08:17:40;1999.90;;;999.90;;
37284;SDS011;23172;53.550;9.964;2023-06-04T08:22:43;1999.90;;;999.90;;
37284;SDS011;23172;53.550;9.964;2023-06-04T08:27:45;1999.90;;;999.90;;
37284;SDS011;23172;53.550;9.964;2023-06-04T08:32:47;1999.90;;;999.90;;
37284;SDS011;23172;53.550;9.964;2023-06-04T08:37:50;1999.90;;;999.90;;
37284;SDS011;23172;53.550;9.964;2023-06-04T08:42:52;1999.90;;;999.90;;
37284;SDS011;23172;53.550;9.964;2023-06-04T08:47:58;1999.90;;;999.90;;
37284;SDS011;23172;53.550;9.964;2023-06-04T08:53:02;1999.90;;;999.90;;
37284;SDS011;23172;53.550;9.964;2023-06-04T08:58:05;1999.90;;;999.90;;
37284;SDS011;23172;53.550;9.964;2023-06-04T09:03:08;1999.90;;;999.90;;
37284;SDS011;23172;53.550;9.964;2023-06-04T09:08:12;1999.90;;;999.90;;
37284;SDS011;23172;53.550;9.964;2023-06-04T09:13:16;1999.90;;;999.90;;
37284;SDS011;23172;53.550;9.964;2023-06-04T09:18:20;1999.90;;;999.90;;
37284;SDS011;23172;53.550;9.964;2023-06-04T09:23:23;1999.90;;;999.90;;
37284;SDS011;23172;53.550;9.964;2023-06-04T09:28:25;1999.90;;;999.90;;
37284;SDS011;23172;53.550;9.964;2023-06-04T09:33:41;1999.90;;;999.90;;
37284;SDS011;23172;53.550;9.964;2023-06-04T09:38:45;1999.90;;;999.90;;
37284;SDS011;23172;53.550;9.964;2023-06-04T09:43:47;1999.90;;;999.90;;
37284;SDS011;23172;53.550;9.964;2023-06-04T09:48:58;1999.90;;;999.90;;
37284;SDS011;23172;53.550;9.964;2023-06-04T09:54:02;1999.90;;;999.90;;
37284;SDS011;23172;53.550;9.964;2023-06-04T09:59:04;1999.90;;;999.90;;
37284;SDS011;23172;53.550;9.964;2023-06-04T10:04:09;1999.90;;;999.90;;
37284;SDS011;23172;53.550;9.964;2023-06-04T10:09:14;1999.90;;;999.90;;
37284;SDS011;23172;53.550;9.964;2023-06-04T10:14:18;1999.90;;;999.90;;
37284;SDS011;23172;53.550;9.964;2023-06-04T10:19:23;1999.90;;;999.90;;
37284;SDS011;23172;53.550;9.964;2023-06-04T10:24:27;1999.90;;;999.90;;
37284;SDS011;23172;53.550;9.964;2023-06-04T10:29:29;1999.90;;;999.90;;
37284;SDS011;23172;53.550;9.964;2023-06-04T10:34:32;1999.90;;;999.90;;
37284;SDS011;23172;53.550;9.964;2023-06-04T10:39:35;1999.90;;;999.90;;
37284;SDS011;23172;53.550;9.964;2023-06-04T10:44:43;1999.90;;;999.90;;
37284;SDS011;23172;53.550;9.964;2023-06-04T10:49:46;1999.90;;;999.90;;
37284;SDS011;23172;53.550;9.964;2023-06-04T10:54:50;1999.90;;;999.90;;
37284;SDS011;23172;53.550;9.964;2023-06-04T10:59:53;1999.90;;;999.90;;
37284;SDS011;23172;53.550;9.964;2023-06-04T11:04:59;1999.90;;;999.90;;
37284;SDS011;23172;53.550;9.964;2023-06-04T11:10:07;1999.90;;;999.90;;
37284;SDS011;23172;53.550;9.964;2023-06-04T11:15:11;1999.90;;;999.90;;
37284;SDS011;23172;53.550;9.964;2023-06-04T11:20:15;1999.90;;;999.90;;
37284;SDS011;23172;53.550;9.964;2023-06-04T11:25:20;1999.90;;;999.90;;
37284;SDS011;23172;53.550;9.964;2023-06-04T11:30:22;1999.90;;;999.90;;
37284;SDS011;23172;53.550;9.964;2023-06-04T11:35:24;1999.90;;;999.90;;
37284;SDS011;23172;53.550;9.964;2023-06-04T11:40:27;1999.90;;;999.90;;
37284;SDS011;23172;53.550;9.964;2023-06-04T11:45:30;1999.90;;;999.90;;
37284;SDS011;23172;53.550;9.964;2023-06-04T11:50:33;1999.90;;;999.90;;
37284;SDS011;23172;53.550;9.964;2023-06-04T11:55:37;1999.90;;;999.90;;
37284;SDS011;23172;53.550;9.964;2023-06-04T12:00:40;1999.90;;;999.90;;
37284;SDS011;23172;53.550;9.964;2023-06-04T12:05:42;1999.90;;;999.90;;
37284;SDS011;23172;53.550;9.964;2023-06-04T12:10:45;1999.90;;;999.90;;
37284;SDS011;23172;53.550;9.964;2023-06-04T12:15:50;1999.90;;;999.90;;
37284;SDS011;23172;53.550;9.964;2023-06-04T12:20:53;1999.90;;;999.90;;
37284;SDS011;23172;53.550;9.964;2023-06-04T12:25:57;1999.90;;;999.90;;
37284;SDS011;23172;53.550;9.964;2023-06-04T12:31:00;1999.90;;;999.90;;
37284;SDS011;23172;53.550;9.964;2023-06-04T12:36:02;1999.90;;;999.90;;
37284;SDS011;23172;53.550;9.964;2023-06-04T12:41:06;1999.90;;;999.90;;
37284;SDS011;23172;53.550;9.964;2023-06-04T12:46:08;1999.90;;;999.90;;
37284;SDS011;23172;53.550;9.964;2023-06-04T12:51:11;1999.90;;;999.90;;
37284;SDS011;23172;53.550;9.964;2023-06-04T12:56:14;1999.90;;;999.90;;
37284;SDS011;23172;53.550;9.964;2023-06-04T13:01:19;1999.90;;;999.90;;
37284;SDS011;23172;53.550;9.964;2023-06-04T13:06:21;1999.90;;;999.90;;
37284;SDS011;23172;53.550;9.964;2023-06-04T13:11:24;1999.90;;;999.90;;
37284;SDS011;23172;53.550;9.964;2023-06-04T13:16:26;1999.90;;;999.90;;
37284;SDS011;23172;53.550;9.964;2023-06-04T13:21:31;1999.90;;;999.90;;
37284;SDS011;23172;53.550;9.964;2023-06-04T13:26:34;1999.90;;;999.90;;
37284;SDS011;23172;53.550;9.964;2023-06-04T13:31:36;1999.90;;;999.90;;
37284;SDS011;23172;53.550;9.964;2023-06-04T13:36:39;1999.90;;;999.90;;
37284;SDS011;23172;53.550;9.964;2023-06-04T13:41:42;1999.90;;;999.90;;
37284;SDS011;23172;53.550;9.964;2023-06-04T13:46:44;1999.90;;;999.90;;
37284;SDS011;23172;53.550;9.964;2023-06-04T13:51:46;1999.90;;;999.90;;
37284;SDS011;23172;53.550;9.964;2023-06-04T13:56:49;1999.90;;;999.90;;
37284;SDS011;23172;53.550;9.964;2023-06-04T14:01:51;1999.90;;;999.90;;
37284;SDS011;23172;53.550;9.964;2023-06-04T14:06:52;1999.90;;;999.90;;
37284;SDS011;23172;53.550;9.964;2023-06-04T14:11:56;1999.90;;;999.90;;
37284;SDS011;23172;53.550;9.964;2023-06-04T14:16:58;1999.90;;;999.90;;
37284;SDS011;23172;53.550;9.964;2023-06-04T14:22:02;1999.90;;;999.90;;
37284;SDS011;23172;53.550;9.964;2023-06-04T14:27:07;1999.90;;;999.90;;
37284;SDS011;23172;53.550;9.964;2023-06-04T14:32:10;1999.90;;;999.90;;
37284;SDS011;23172;53.550;9.964;2023-06-04T14:37:12;1999.90;;;999.90;;
37284;SDS011;23172;53.550;9.964;2023-06-04T14:42:15;1999.90;;;999.90;;
37284;SDS011;23172;53.550;9.964;2023-06-04T14:47:17;1999.90;;;999.90;;
37284;SDS011;23172;53.550;9.964;2023-06-04T14:52:19;1999.90;;;999.90;;
37284;SDS011;23172;53.550;9.964;2023-06-04T14:57:22;1999.90;;;999.90;;
37284;SDS011;23172;53.550;9.964;2023-06-04T15:02:24;1999.90;;;999.90;;
37284;SDS011;23172;53.550;9.964;2023-06-04T15:07:26;1999.90;;;999.90;;
37284;SDS011;23172;53.550;9.964;2023-06-04T15:12:29;1999.90;;;999.90;;
37284;SDS011;23172;53.550;9.964;2023-06-04T15:17:33;1999.90;;;999.90;;
37284;SDS011;23172;53.550;9.964;2023-06-04T15:22:35;1999.90;;;999.90;;
37284;SDS011;23172;53.550;9.964;2023-06-04T15:27:38;1999.90;;;999.90;;
37284;SDS011;23172;53.550;9.964;2023-06-04T15:32:41;1999.90;;;999.90;;
37284;SDS011;23172;53.550;9.964;2023-06-04T15:37:44;1999.90;;;999.90;;
37284;SDS011;23172;53.550;9.964;2023-06-04T15:42:47;1999.90;;;999.90;;
37284;SDS011;23172;53.550;9.964;2023-06-04T15:47:49;1999.90;;;999.90;;
37284;SDS011;23172;53.550;9.964;2023-06-04T15:52:51;991.03;;;327.40;;
37284;SDS011;23172;53.550;9.964;2023-06-04T15:57:54;1948.93;;;631.70;;
37284;SDS011;23172;53.550;9.964;2023-06-04T16:02:56;1999.90;;;539.08;;
37284;SDS011;23172;53.550;9.964;2023-06-04T16:07:58;1999.90;;;924.00;;
37284;SDS011;23172;53.550;9.964;2023-06-04T16:13:01;1999.90;;;999.90;;
37284;SDS011;23172;53.550;9.964;2023-06-04T16:18:03;1999.90;;;999.90;;
37284;SDS011;23172;53.550;9.964;2023-06-04T16:23:05;1664.88;;;999.90;;
37284;SDS011;23172;53.550;9.964;2023-06-04T16:28:08;1193.03;;;999.90;;
37284;SDS011;23172;53.550;9.964;2023-06-04T16:33:10;1124.07;;;999.90;;
37284;SDS011;23172;53.550;9.964;2023-06-04T16:38:12;946.00;;;875.53;;
37284;SDS011;23172;53.550;9.964;2023-06-04T16:43:15;790.17;;;740.38;;
37284;SDS011;23172;53.550;9.964;2023-06-04T16:48:17;550.38;;;523.60;;
37284;SDS011;23172;53.550;9.964;2023-06-04T16:53:18;337.58;;;322.15;;
37284;SDS011;23172;53.550;9.964;2023-06-04T16:58:22;221.35;;;212.75;;
37284;SDS011;23172;53.550;9.964;2023-06-04T17:03:23;145.30;;;139.10;;
37284;SDS011;23172;53.550;9.964;2023-06-04T17:08:25;45.55;;;43.63;;
37284;SDS011;23172;53.550;9.964;2023-06-04T17:13:29;49.97;;;47.90;;
37284;SDS011;23172;53.550;9.964;2023-06-04T17:18:30;28.40;;;26.95;;
37284;SDS011;23172;53.550;9.964;2023-06-04T17:23:32;21.63;;;20.45;;
37284;SDS011;23172;53.550;9.964;2023-06-04T17:28:35;53.42;;;51.28;;
37284;SDS011;23172;53.550;9.964;2023-06-04T17:33:37;62.83;;;60.15;;
37284;SDS011;23172;53.550;9.964;2023-06-04T17:38:39;54.40;;;52.15;;
37284;SDS011;23172;53.550;9.964;2023-06-04T17:43:42;49.35;;;47.45;;
37284;SDS011;23172;53.550;9.964;2023-06-04T17:48:44;37.90;;;36.33;;
37284;SDS011;23172;53.550;9.964;2023-06-04T17:53:46;43.72;;;41.75;;
37284;SDS011;23172;53.550;9.964;2023-06-04T17:58:49;31.35;;;29.90;;
37284;SDS011;23172;53.550;9.964;2023-06-04T18:03:51;18.33;;;17.35;;
37284;SDS011;23172;53.550;9.964;2023-06-04T18:08:53;13.77;;;13.18;;
37284;SDS011;23172;53.550;9.964;2023-06-04T18:13:57;14.18;;;13.48;;
37284;SDS011;23172;53.550;9.964;2023-06-04T18:18:59;25.50;;;24.40;;
37284;SDS011;23172;53.550;9.964;2023-06-04T18:24:01;13.20;;;12.48;;
37284;SDS011;23172;53.550;9.964;2023-06-04T18:29:04;12.55;;;11.95;;
37284;SDS011;23172;53.550;9.964;2023-06-04T18:34:06;12.77;;;12.18;;
37284;SDS011;23172;53.550;9.964;2023-06-04T18:39:10;14.60;;;13.80;;
37284;SDS011;23172;53.550;9.964;2023-06-04T18:44:13;40.95;;;39.20;;
37284;SDS011;23172;53.550;9.964;2023-06-04T18:49:15;19.58;;;18.73;;
37284;SDS011;23172;53.550;9.964;2023-06-04T18:54:17;16.60;;;15.70;;
37284;SDS011;23172;53.550;9.964;2023-06-04T18:59:21;18.25;;;17.40;;
37284;SDS011;23172;53.550;9.964;2023-06-04T19:04:23;23.17;;;22.20;;
37284;SDS011;23172;53.550;9.964;2023-06-04T19:09:25;25.67;;;24.42;;
37284;SDS011;23172;53.550;9.964;2023-06-04T19:14:28;38.50;;;36.92;;
37284;SDS011;23172;53.550;9.964;2023-06-04T19:19:30;30.45;;;29.23;;
37284;SDS011;23172;53.550;9.964;2023-06-04T19:24:32;38.63;;;37.08;;
37284;SDS011;23172;53.550;9.964;2023-06-04T19:29:35;37.75;;;36.08;;
37284;SDS011;23172;53.550;9.964;2023-06-04T19:34:42;34.17;;;32.78;;
37284;SDS011;23172;53.550;9.964;2023-06-04T19:39:46;35.40;;;33.97;;
37284;SDS011;23172;53.550;9.964;2023-06-04T19:44:49;28.90;;;27.77;;
37284;SDS011;23172;53.550;9.964;2023-06-04T19:49:53;37.55;;;35.83;;
37284;SDS011;23172;53.550;9.964;2023-06-04T19:54:56;37.25;;;35.65;;
37284;SDS011;23172;53.550;9.964;2023-06-04T19:59:59;34.15;;;32.72;;
37284;SDS011;23172;53.550;9.964;2023-06-04T20:05:01;35.17;;;33.65;;
37284;SDS011;23172;53.550;9.964;2023-06-04T20:10:03;27.25;;;26.05;;
37284;SDS011;23172;53.550;9.964;2023-06-04T20:15:08;31.50;;;30.10;;
37284;SDS011;23172;53.550;9.964;2023-06-04T20:20:10;26.75;;;25.55;;
37284;SDS011;23172;53.550;9.964;2023-06-04T20:25:12;24.08;;;22.90;;
37284;SDS011;23172;53.550;9.964;2023-06-04T20:30:15;25.15;;;24.15;;
37284;SDS011;23172;53.550;9.964;2023-06-04T20:35:18;21.90;;;21.00;;
37284;SDS011;23172;53.550;9.964;2023-06-04T20:40:20;23.13;;;22.23;;
37284;SDS011;23172;53.550;9.964;2023-06-04T20:45:24;18.52;;;17.65;;
37284;SDS011;23172;53.550;9.964;2023-06-04T20:50:26;19.05;;;18.15;;
37284;SDS011;23172;53.550;9.964;2023-06-04T20:55:27;14.15;;;13.25;;
37284;SDS011;23172;53.550;9.964;2023-06-04T21:00:31;15.32;;;14.43;;
37284;SDS011;23172;53.550;9.964;2023-06-04T21:05:33;23.08;;;21.00;;
37284;SDS011;23172;53.550;9.964;2023-06-04T21:10:35;23.05;;;21.13;;
37284;SDS011;23172;53.550;9.964;2023-06-04T21:15:38;17.02;;;16.02;;
37284;SDS011;23172;53.550;9.964;2023-06-04T21:20:40;13.05;;;12.13;;
37284;SDS011;23172;53.550;9.964;2023-06-04T21:25:42;11.65;;;10.88;;
37284;SDS011;23172;53.550;9.964;2023-06-04T21:30:46;11.52;;;10.73;;
37284;SDS011;23172;53.550;9.964;2023-06-04T21:35:47;6.90;;;6.38;;
37284;SDS011;23172;53.550;9.964;2023-06-04T21:40:49;7.25;;;6.65;;
37284;SDS011;23172;53.550;9.964;2023-06-04T21:45:52;7.18;;;6.57;;
37284;SDS011;23172;53.550;9.964;2023-06-04T21:50:54;7.75;;;6.90;;
37284;SDS011;23172;53.550;9.964;2023-06-04T21:55:56;8.27;;;7.55;;
37284;SDS011;23172;53.550;9.964;2023-06-04T22:00:59;7.03;;;6.43;;
37284;SDS011;23172;53.550;9.964;2023-06-04T22:06:01;6.65;;;6.05;;
37284;SDS011;23172;53.550;9.964;2023-06-04T22:11:03;6.10;;;5.32;;
37284;SDS011;23172;53.550;9.964;2023-06-04T22:16:06;6.53;;;5.93;;
37284;SDS011;23172;53.550;9.964;2023-06-04T22:21:08;6.47;;;5.88;;
37284;SDS011;23172;53.550;9.964;2023-06-04T22:26:10;6.93;;;6.30;;
37284;SDS011;23172;53.550;9.964;2023-06-04T22:31:14;9.88;;;9.18;;
37284;SDS011;23172;53.550;9.964;2023-06-04T22:36:15;8.18;;;7.68;;
37284;SDS011;23172;53.550;9.964;2023-06-04T22:41:17;6.93;;;6.38;;
37284;SDS011;23172;53.550;9.964;2023-06-04T22:46:20;5.78;;;5.28;;
37284;SDS011;23172;53.550;9.964;2023-06-04T22:51:22;5.28;;;4.78;;
37284;SDS011;23172;53.550;9.964;2023-06-04T22:56:24;6.65;;;6.22;;
37284;SDS011;23172;53.550;9.964;2023-06-04T23:01:27;5.70;;;5.25;;
37284;SDS011;23172;53.550;9.964;2023-06-04T23:06:29;6.88;;;6.40;;
37284;SDS011;23172;53.550;9.964;2023-06-04T23:11:31;6.45;;;6.05;;
37284;SDS011;23172;53.550;9.964;2023-06-04T23:16:34;9.35;;;8.85;;
37284;SDS011;23172;53.550;9.964;2023-06-04T23:21:36;9.45;;;8.95;;
37284;SDS011;23172;53.550;9.964;2023-06-04T23:26:38;7.28;;;6.75;;
37284;SDS011;23172;53.550;9.964;2023-06-04T23:31:41;8.35;;;7.78;;
37284;SDS011;23172;53.550;9.964;2023-06-04T23:36:43;9.65;;;9.05;;
37284;SDS011;23172;53.550;9.964;2023-06-04T23:41:45;7.32;;;6.82;;
37284;SDS011;23172;53.550;9.964;2023-06-04T23:46:48;8.02;;;7.53;;
37284;SDS011;23172;53.550;9.964;2023-06-04T23:51:50;8.57;;;7.88;;
37284;SDS011;23172;53.550;9.964;2023-06-04T23:56:52;8.82;;;8.02;;
